Time;durP1;ratioP1;P1;durP2;ratioP2;P2;SDS_P1;SDS_P2;PMS_P1;PMS_P2;Temp;Humidity;BMP_temperature;BMP_pressure;BME280_temperature;BME280_humidity;BME280_pressure;Samples;Min_cycle;Max_cycle;Signal;HPM_P1;HPM_P2
2022/01/05 00:00:05;;;;;;;12.30;8.30;;;;;;;6.02;77.32;98795.54;1739812;82;21019;-71
2022/01/05 00:02:32;;;;;;;13.93;8.00;;;;;;;6.03;77.41;98792.63;1739817;82;21121;-69
2022/01/05 00:04:59;;;;;;;13.38;8.03;;;;;;;6.05;77.48;98793.14;1749994;81;21045;-71
2022/01/05 00:07:25;;;;;;;11.35;7.95;;;;;;;6.09;77.54;98792.09;1770195;81;21006;-71
2022/01/05 00:09:52;;;;;;;10.55;7.40;;;;;;;6.10;77.54;98801.62;1769527;81;21498;-71
2022/01/05 00:12:20;;;;;;;10.95;7.30;;;;;;;6.15;77.66;98805.56;1770074;81;21069;-71
2022/01/05 00:14:48;;;;;;;12.33;7.87;;;;;;;6.20;77.68;98790.98;1769874;81;21519;-71
2022/01/05 00:17:14;;;;;;;11.88;7.92;;;;;;;6.25;77.63;98788.83;1770062;81;21006;-71
2022/01/05 00:19:43;;;;;;;11.93;8.03;;;;;;;6.28;77.57;98779.80;1769862;81;21006;-71
2022/01/05 00:22:11;;;;;;;12.78;7.72;;;;;;;6.30;77.54;98769.72;1770241;81;20967;-71
2022/01/05 00:24:38;;;;;;;11.55;7.62;;;;;;;6.30;77.50;98761.77;1770141;81;21446;-71
2022/01/05 00:27:05;;;;;;;11.10;7.70;;;;;;;6.30;77.47;98759.12;1770082;81;21130;-71
2022/01/05 00:29:32;;;;;;;13.88;8.10;;;;;;;6.27;77.55;98760.98;1770178;81;21003;-71
2022/01/05 00:31:59;;;;;;;10.60;7.15;;;;;;;6.28;77.62;98754.61;1770025;81;20939;-71
2022/01/05 00:34:27;;;;;;;9.70;6.55;;;;;;;6.31;77.67;98747.44;1770187;81;21037;-71
2022/01/05 00:36:54;;;;;;;10.13;6.85;;;;;;;6.33;77.72;98743.99;1770230;81;21620;-71
2022/01/05 00:39:22;;;;;;;10.72;7.12;;;;;;;6.35;77.76;98741.08;1770092;81;21215;-71
2022/01/05 00:41:49;;;;;;;9.53;6.65;;;;;;;6.39;77.82;98743.98;1770112;81;20990;-71
2022/01/05 00:44:24;;;;;;;10.20;6.95;;;;;;;6.41;77.82;98743.16;1742433;81;21109;-71
2022/01/05 00:47:41;;;;;;;9.65;6.67;;;;;;;6.42;77.82;98740.78;1770043;81;21652;-71
2022/01/05 00:50:08;;;;;;;10.45;6.60;;;;;;;6.43;77.85;98734.41;1766508;81;21081;-69
2022/01/05 00:52:34;;;;;;;9.23;6.62;;;;;;;6.44;77.88;98730.67;1770252;81;21105;-70
2022/01/05 00:55:01;;;;;;;10.55;6.20;;;;;;;6.44;77.91;98726.70;1769960;81;21539;-70
2022/01/05 00:57:28;;;;;;;9.38;6.20;;;;;;;6.46;77.94;98722.71;1770335;81;21550;-70
2022/01/05 00:59:55;;;;;;;9.90;6.53;;;;;;;6.48;77.93;98722.42;1770172;81;20989;-70
2022/01/05 01:02:21;;;;;;;10.40;6.70;;;;;;;6.46;77.96;98718.73;1770326;81;21172;-70
2022/01/05 01:04:47;;;;;;;10.38;6.33;;;;;;;6.48;78.03;98716.61;1770292;81;21550;-70
2022/01/05 01:07:15;;;;;;;10.60;6.70;;;;;;;6.50;78.05;98711.80;1770089;81;21057;-70
2022/01/05 01:09:41;;;;;;;9.00;6.03;;;;;;;6.51;78.10;98708.61;1770361;81;20962;-70
2022/01/05 01:12:10;;;;;;;9.63;6.30;;;;;;;6.53;78.16;98699.86;1770084;81;21030;-70
2022/01/05 01:14:38;;;;;;;9.18;6.20;;;;;;;6.55;78.17;98695.08;1770237;81;21014;-69
2022/01/05 01:17:05;;;;;;;10.38;6.55;;;;;;;6.58;78.21;98687.88;1770115;81;21501;-71
2022/01/05 01:19:32;;;;;;;7.85;5.92;;;;;;;6.58;78.19;98687.36;1769971;81;21006;-70
2022/01/05 01:21:59;;;;;;;9.35;6.12;;;;;;;6.61;78.24;98682.55;1766291;81;20951;-70
2022/01/05 01:24:26;;;;;;;8.08;5.80;;;;;;;6.66;78.27;98672.70;1770412;81;20991;-70
2022/01/05 01:26:52;;;;;;;8.73;5.72;;;;;;;6.70;78.26;98679.04;1770209;81;21137;-70
2022/01/05 01:29:19;;;;;;;7.72;5.72;;;;;;;6.73;78.36;98683.00;1770259;81;21088;-70
2022/01/05 01:31:47;;;;;;;10.55;6.03;;;;;;;6.75;78.41;98678.22;1770154;81;20986;-70
2022/01/05 01:34:14;;;;;;;8.65;6.00;;;;;;;6.78;78.51;98679.00;1770216;81;21015;-70
2022/01/05 01:36:41;;;;;;;8.90;5.90;;;;;;;6.83;78.54;98672.30;1770139;81;21085;-71
2022/01/05 01:39:07;;;;;;;8.55;5.47;;;;;;;6.89;78.55;98671.73;1770335;81;21129;-71
2022/01/05 01:41:34;;;;;;;9.00;5.40;;;;;;;6.92;78.56;98661.35;1769993;79;21130;-70
2022/01/05 01:44:01;;;;;;;8.50;5.55;;;;;;;6.94;78.55;98654.42;1768413;81;21121;-70
2022/01/05 01:46:27;;;;;;;8.75;5.47;;;;;;;6.98;78.58;98651.48;1768581;81;20979;-70
2022/01/05 01:48:54;;;;;;;8.23;5.50;;;;;;;7.02;78.58;98635.25;1714664;81;21015;-72
2022/01/05 01:51:20;;;;;;;7.97;5.60;;;;;;;7.05;78.55;98628.06;1768703;81;20955;-70
2022/01/05 01:53:47;;;;;;;9.75;5.45;;;;;;;7.10;78.55;98624.55;1768422;81;21487;-70
2022/01/05 01:56:14;;;;;;;9.23;5.62;;;;;;;7.13;78.51;98624.78;1768709;81;21483;-70
2022/01/05 01:58:41;;;;;;;9.00;5.40;;;;;;;7.18;78.45;98619.97;1768547;81;21541;-70
2022/01/05 02:01:07;;;;;;;7.53;5.85;;;;;;;7.19;78.38;98607.73;1768308;81;20980;-70
2022/01/05 02:03:34;;;;;;;8.43;5.35;;;;;;;7.21;78.28;98598.95;1768619;81;20998;-70
2022/01/05 02:06:00;;;;;;;9.58;5.78;;;;;;;7.23;78.23;98604.75;1768529;81;21063;-70
2022/01/05 02:08:28;;;;;;;7.50;5.62;;;;;;;7.25;78.17;98603.16;1768330;81;20956;-70
2022/01/05 02:10:54;;;;;;;9.53;5.85;;;;;;;7.28;78.09;98596.75;1768520;81;20964;-70
2022/01/05 02:13:21;;;;;;;8.43;5.50;;;;;;;7.32;78.00;98600.95;1768412;81;21026;-70
2022/01/05 02:15:47;;;;;;;9.60;6.12;;;;;;;7.34;77.94;98604.64;1768374;81;21082;-70
2022/01/05 02:20:48;;;;;;;10.00;5.87;;;;;;;7.34;77.76;98600.66;1768480;81;21550;-70
2022/01/05 02:23:14;;;;;;;8.98;5.90;;;;;;;7.34;77.67;98595.34;1768337;81;21023;-70
2022/01/05 02:25:41;;;;;;;7.78;5.45;;;;;;;7.33;77.61;98587.91;1817541;79;21510;-69
2022/01/05 02:28:07;;;;;;;9.78;6.37;;;;;;;7.33;77.58;98581.82;1817489;79;21086;-70
2022/01/05 02:30:37;;;;;;;7.92;5.53;;;;;;;7.31;77.59;98585.31;1817578;79;21491;-70
2022/01/05 02:33:03;;;;;;;9.10;5.90;;;;;;;7.31;77.59;98579.46;1817373;79;21467;-70
2022/01/05 02:35:30;;;;;;;10.05;6.00;;;;;;;7.31;77.55;98586.10;1817345;79;21672;-70
2022/01/05 02:37:57;;;;;;;8.73;5.87;;;;;;;7.31;77.55;98585.31;1817464;79;21032;-70
2022/01/05 02:40:23;;;;;;;9.53;5.72;;;;;;;7.33;77.55;98587.91;1817392;77;21042;-70
2022/01/05 02:42:53;;;;;;;9.68;6.15;;;;;;;7.34;77.51;98576.23;1817628;79;21183;-70
2022/01/05 02:45:21;;;;;;;8.80;6.25;;;;;;;7.35;77.45;98558.44;1817284;79;21051;-70
2022/01/05 02:47:48;;;;;;;9.23;5.47;;;;;;;7.36;77.47;98553.37;1817825;79;21031;-70
2022/01/05 02:50:15;;;;;;;9.43;5.70;;;;;;;7.39;77.43;98555.45;1817376;79;21006;-70
2022/01/05 02:52:43;;;;;;;8.13;5.60;;;;;;;7.38;77.34;98561.85;1817741;79;20984;-70
2022/01/05 02:55:09;;;;;;;9.98;5.90;;;;;;;7.40;77.34;98547.73;1817448;79;21479;-70
2022/01/05 02:57:36;;;;;;;8.68;5.53;;;;;;;7.39;77.25;98543.50;1817855;79;20948;-71
2022/01/05 03:00:08;;;;;;;9.88;5.70;;;;;;;7.41;77.21;98544.02;1817466;79;21510;-70
2022/01/05 03:02:36;;;;;;;8.40;5.22;;;;;;;7.42;77.14;98553.56;1818136;79;20987;-69
2022/01/05 03:05:03;;;;;;;7.92;5.60;;;;;;;7.43;77.08;98545.84;1817497;79;21042;-71
2022/01/05 03:07:31;;;;;;;6.92;4.90;;;;;;;7.43;77.03;98555.92;1817999;79;21047;-71
2022/01/05 03:09:58;;;;;;;8.08;5.03;;;;;;;7.43;76.98;98561.77;1817272;79;21034;-71
2022/01/05 03:12:26;;;;;;;9.23;5.70;;;;;;;7.44;76.84;98566.03;1817004;78;20982;-72
2022/01/05 03:14:53;;;;;;;8.58;5.70;;;;;;;7.41;76.74;98553.31;1819334;78;21034;-71
2022/01/05 03:17:20;;;;;;;8.88;5.70;;;;;;;7.40;76.72;98557.03;1819615;78;21168;-70
2022/01/05 03:19:47;;;;;;;8.18;5.70;;;;;;;7.37;76.66;98559.73;1818291;78;21921;-71
2022/01/05 03:22:14;;;;;;;8.83;6.00;;;;;;;7.37;76.65;98564.23;1819056;78;21651;-71
2022/01/05 03:24:40;;;;;;;9.65;5.80;;;;;;;7.36;76.58;98556.81;1819229;78;21668;-71
2022/01/05 03:27:07;;;;;;;8.88;5.78;;;;;;;7.35;76.60;98562.42;1819272;78;21422;-69
2022/01/05 03:29:34;;;;;;;8.70;5.83;;;;;;;7.37;76.61;98557.08;1818676;78;21011;-71
2022/01/05 03:32:00;;;;;;;8.03;5.42;;;;;;;7.37;76.55;98563.72;1819399;78;21601;-69
2022/01/05 03:34:27;;;;;;;8.60;5.60;;;;;;;7.39;76.50;98562.09;1812999;78;21023;-70
2022/01/05 03:36:56;;;;;;;9.40;6.20;;;;;;;7.39;76.49;98560.77;1819145;78;21151;-71
2022/01/05 03:39:22;;;;;;;10.05;6.12;;;;;;;7.39;76.48;98559.44;1818618;77;20983;-70
2022/01/05 03:41:49;;;;;;;9.53;6.17;;;;;;;7.41;76.45;98553.31;1817441;79;21059;-70
2022/01/05 03:44:18;;;;;;;8.68;5.80;;;;;;;7.44;76.39;98546.11;1818675;78;21507;-69
2022/01/05 03:46:47;;;;;;;9.73;6.20;;;;;;;7.49;76.33;98553.45;1819238;78;21661;-70
2022/01/05 03:49:13;;;;;;;8.48;5.75;;;;;;;7.53;76.24;98557.66;1819400;78;21443;-70
2022/01/05 03:51:40;;;;;;;8.15;5.70;;;;;;;7.56;76.18;98561.62;1790225;78;21780;-70
2022/01/05 03:54:08;;;;;;;9.43;6.00;;;;;;;7.59;76.07;98561.05;1819282;78;20939;-70
2022/01/05 03:56:34;;;;;;;8.38;5.50;;;;;;;7.60;75.94;98555.98;1818716;78;21473;-70
2022/01/05 03:59:00;;;;;;;9.33;6.42;;;;;;;7.58;75.84;98560.27;1819367;78;21153;-70
2022/01/05 04:01:27;;;;;;;10.63;6.12;;;;;;;7.56;75.77;98559.75;1819244;78;20948;-70
2022/01/05 04:03:54;;;;;;;11.78;6.80;;;;;;;7.54;75.69;98560.59;1818257;78;20999;-70
2022/01/05 04:06:20;;;;;;;9.28;6.12;;;;;;;7.54;75.69;98560.59;1818916;78;20955;-70
2022/01/05 04:08:47;;;;;;;9.10;6.10;;;;;;;7.57;75.69;98547.25;1819109;78;21486;-70
2022/01/05 04:11:14;;;;;;;8.68;5.80;;;;;;;7.59;75.64;98551.75;1818958;78;21125;-70
2022/01/05 04:13:40;;;;;;;9.45;6.08;;;;;;;7.60;75.64;98540.85;1818225;78;21103;-71
2022/01/05 04:16:07;;;;;;;9.88;6.08;;;;;;;7.62;75.59;98546.65;1818633;78;21006;-70
2022/01/05 04:18:40;;;;;;;7.90;5.80;;;;;;;7.62;75.56;98545.32;1819107;78;20967;-70
2022/01/05 04:21:12;;;;;;;8.78;5.55;;;;;;;7.64;75.56;98536.53;1819688;78;20977;-70
2022/01/05 04:23:47;;;;;;;9.70;6.33;;;;;;;7.65;75.52;98526.16;1818204;78;20984;-70
2022/01/05 04:26:21;;;;;;;9.65;5.85;;;;;;;7.68;75.47;98531.44;1789559;78;21050;-70
2022/01/05 04:28:47;;;;;;;10.82;6.15;;;;;;;7.68;75.42;98522.92;1746034;82;20963;-70
2022/01/05 04:31:15;;;;;;;10.85;6.40;;;;;;;7.70;75.40;98526.61;1716839;82;21506;-70
2022/01/05 04:33:42;;;;;;;9.83;6.87;;;;;;;7.70;75.38;98523.44;1693112;83;21506;-70
2022/01/05 04:36:10;;;;;;;8.78;5.80;;;;;;;7.71;75.33;98538.30;1714992;82;20944;-70
2022/01/05 04:38:37;;;;;;;9.65;6.00;;;;;;;7.72;75.37;98533.22;1693182;83;21024;-71
2022/01/05 04:41:04;;;;;;;9.98;6.95;;;;;;;7.75;75.41;98535.84;1753715;80;20984;-71
2022/01/05 04:43:31;;;;;;;10.53;5.87;;;;;;;7.77;75.40;98532.92;1765055;79;21105;-71
2022/01/05 04:45:58;;;;;;;10.98;6.30;;;;;;;7.78;75.40;98542.47;1786420;79;21574;-72
2022/01/05 04:48:25;;;;;;;8.63;5.80;;;;;;;7.80;75.36;98550.92;1786407;79;20993;-70
2022/01/05 04:50:52;;;;;;;9.75;6.10;;;;;;;7.76;75.35;98561.34;1785944;79;21055;-70
2022/01/05 04:53:19;;;;;;;10.85;6.50;;;;;;;7.72;75.42;98569.09;1746528;81;21503;-71
2022/01/05 04:55:46;;;;;;;8.55;5.80;;;;;;;7.71;75.54;98566.20;1746537;82;21070;-70
2022/01/05 04:58:14;;;;;;;8.48;6.00;;;;;;;7.73;75.67;98552.61;1746507;82;21145;-71
2022/01/05 05:00:41;;;;;;;8.63;6.12;;;;;;;7.74;75.76;98543.58;1745488;82;21324;-70
2022/01/05 05:03:07;;;;;;;8.93;5.58;;;;;;;7.78;75.86;98541.14;1723766;83;22735;-70
2022/01/05 05:05:35;;;;;;;8.18;5.72;;;;;;;7.82;75.96;98536.82;1723478;81;20976;-70
2022/01/05 05:08:03;;;;;;;7.05;5.12;;;;;;;7.86;76.06;98551.89;1746818;82;21023;-70
2022/01/05 05:10:30;;;;;;;9.20;5.92;;;;;;;7.91;76.18;98549.72;1723194;81;21147;-71
2022/01/05 05:12:56;;;;;;;11.15;6.75;;;;;;;7.96;76.31;98550.95;1723664;82;20967;-71
2022/01/05 05:15:25;;;;;;;7.83;5.62;;;;;;;7.99;76.37;98540.56;1746473;80;21067;-71
2022/01/05 05:17:53;;;;;;;9.33;5.80;;;;;;;8.04;76.41;98545.55;1723417;82;21573;-71
2022/01/05 05:20:19;;;;;;;8.63;5.50;;;;;;;8.09;76.36;98540.13;1745187;80;21491;-71
2022/01/05 05:22:46;;;;;;;10.18;5.97;;;;;;;8.13;76.28;98535.84;1745180;82;22164;-70
2022/01/05 05:25:12;;;;;;;7.85;5.60;;;;;;;8.16;76.25;98523.27;1744799;82;21523;-71
2022/01/05 05:27:38;;;;;;;10.35;5.90;;;;;;;8.18;76.17;98529.87;1744937;82;21569;-71
2022/01/05 05:30:07;;;;;;;9.30;6.20;;;;;;;8.20;76.13;98518.97;1744797;82;21467;-71
2022/01/05 05:32:35;;;;;;;7.40;5.30;;;;;;;8.24;76.02;98534.58;1744967;82;21040;-71
2022/01/05 05:35:02;;;;;;;8.85;5.80;;;;;;;8.25;75.86;98546.00;1745079;82;21529;-71
2022/01/05 05:37:30;;;;;;;10.65;6.10;;;;;;;8.28;75.75;98561.38;1744948;82;20999;-71
2022/01/05 05:39:56;;;;;;;7.92;5.37;;;;;;;8.29;75.67;98558.97;1745073;82;21028;-71
2022/01/05 05:42:23;;;;;;;9.58;5.78;;;;;;;8.32;75.59;98561.05;1744803;82;20988;-71
2022/01/05 05:44:50;;;;;;;9.03;5.90;;;;;;;8.32;75.32;98557.06;1745393;82;21050;-71
2022/01/05 05:47:16;;;;;;;8.98;5.72;;;;;;;8.34;75.16;98565.55;1744899;82;21010;-70
2022/01/05 05:49:44;;;;;;;7.33;5.28;;;;;;;8.36;75.10;98578.03;1744633;82;21007;-71
2022/01/05 05:52:12;;;;;;;6.70;4.47;;;;;;;8.42;74.90;98568.89;1741393;82;20983;-70
2022/01/05 05:54:38;;;;;;;8.00;5.30;;;;;;;8.45;74.47;98574.96;1746839;81;20955;-72
2022/01/05 05:57:06;;;;;;;10.05;5.20;;;;;;;8.51;74.35;98568.48;1746494;82;20990;-71
2022/01/05 05:59:33;;;;;;;7.72;4.87;;;;;;;8.58;74.07;98568.10;1746433;82;21126;-71
2022/01/05 06:01:59;;;;;;;6.37;4.53;;;;;;;8.62;73.62;98578.41;1746410;82;21617;-71
2022/01/05 06:04:26;;;;;;;8.88;5.03;;;;;;;8.67;73.11;98573.01;1746388;82;21505;-71
2022/01/05 06:06:54;;;;;;;7.85;5.03;;;;;;;8.74;72.51;98565.97;1746331;82;21011;-72
2022/01/05 06:09:21;;;;;;;7.70;4.87;;;;;;;8.82;72.33;98562.65;1746297;82;20936;-71
2022/01/05 06:11:47;;;;;;;6.47;4.83;;;;;;;8.89;71.77;98581.69;1746602;82;21416;-71
2022/01/05 06:14:14;;;;;;;6.35;4.25;;;;;;;8.94;71.42;98574.92;1746452;82;21034;-71
2022/01/05 06:16:43;;;;;;;7.80;4.40;;;;;;;8.99;71.25;98584.70;1723365;82;21008;-71
2022/01/05 06:19:09;;;;;;;7.35;4.80;;;;;;;9.02;71.01;98592.89;1746807;80;20994;-72
2022/01/05 06:21:37;;;;;;;6.45;4.33;;;;;;;9.04;70.76;98598.69;1723330;81;21007;-71
2022/01/05 06:24:04;;;;;;;8.38;4.90;;;;;;;9.08;70.47;98610.88;1786907;79;21457;-71
2022/01/05 06:26:31;;;;;;;7.65;4.95;;;;;;;9.08;70.33;98602.89;1786321;79;20999;-71
2022/01/05 06:28:58;;;;;;;7.78;4.75;;;;;;;9.07;70.14;98592.00;1786756;79;20976;-71
2022/01/05 06:31:24;;;;;;;7.37;5.10;;;;;;;9.09;70.07;98604.48;1786505;79;21138;-71
2022/01/05 06:33:51;;;;;;;7.28;4.62;;;;;;;9.09;70.10;98601.28;1786794;79;21047;-71
2022/01/05 06:36:18;;;;;;;7.58;4.72;;;;;;;9.12;69.97;98614.00;1786543;79;21911;-72
2022/01/05 06:38:44;;;;;;;6.83;4.50;;;;;;;9.14;69.82;98620.36;1786564;79;21538;-71
2022/01/05 06:41:11;;;;;;;7.83;4.78;;;;;;;9.16;69.75;98613.66;1786559;79;21019;-72
2022/01/05 06:43:37;;;;;;;7.33;4.62;;;;;;;9.19;69.61;98625.60;1786564;79;21468;-72
2022/01/05 06:46:05;;;;;;;6.78;4.80;;;;;;;9.21;69.44;98628.74;1786528;79;21483;-72
2022/01/05 06:48:32;;;;;;;6.40;4.50;;;;;;;9.21;69.40;98622.08;1786368;79;21953;-72
2022/01/05 06:50:58;;;;;;;6.83;4.35;;;;;;;9.21;69.24;98628.74;1785491;80;21447;-71
2022/01/05 06:53:25;;;;;;;6.50;4.30;;;;;;;9.25;69.18;98628.97;1786629;79;21020;-71
2022/01/05 06:55:52;;;;;;;7.00;4.55;;;;;;;9.26;69.26;98633.20;1786865;79;21150;-71
2022/01/05 06:58:18;;;;;;;6.10;4.25;;;;;;;9.28;69.24;98632.34;1786147;79;21487;-71
2022/01/05 07:00:46;;;;;;;6.80;4.58;;;;;;;9.27;68.95;98639.55;1746668;82;21898;-72
2022/01/05 07:03:12;;;;;;;6.72;4.20;;;;;;;9.27;69.02;98637.44;1746495;82;21042;-71
2022/01/05 07:05:39;;;;;;;9.08;5.22;;;;;;;9.29;68.99;98625.95;1746498;82;20991;-72
2022/01/05 07:08:06;;;;;;;7.03;4.15;;;;;;;9.33;68.92;98638.38;1746674;82;21106;-72
2022/01/05 07:10:34;;;;;;;6.85;4.67;;;;;;;9.37;68.90;98632.70;1746613;82;21438;-71
2022/01/05 07:13:00;;;;;;;6.85;4.47;;;;;;;9.38;68.70;98650.29;1746726;82;21235;-72
2022/01/05 07:15:28;;;;;;;6.20;3.83;;;;;;;9.40;68.62;98642.77;1746405;82;20932;-72
2022/01/05 07:17:54;;;;;;;7.17;4.12;;;;;;;9.46;68.56;98640.80;1745126;80;20988;-71
2022/01/05 07:20:21;;;;;;;6.28;4.08;;;;;;;9.51;68.31;98642.56;1720358;82;21145;-72
2022/01/05 07:22:47;;;;;;;6.67;4.42;;;;;;;9.48;68.43;98657.30;1701802;83;21056;-72
2022/01/05 07:25:14;;;;;;;6.75;4.35;;;;;;;9.47;68.38;98666.36;1702050;84;21129;-72
2022/01/05 07:27:41;;;;;;;6.72;4.03;;;;;;;9.52;68.40;98667.61;1701859;83;20977;-72
2022/01/05 07:30:09;;;;;;;6.05;4.08;;;;;;;9.56;68.34;98655.81;1734667;82;21084;-71
2022/01/05 07:32:36;;;;;;;6.75;3.87;;;;;;;9.59;68.22;98683.98;1723603;82;21577;-71
2022/01/05 07:35:04;;;;;;;5.80;4.17;;;;;;;9.63;68.14;98672.97;1746425;82;21044;-71
2022/01/05 07:37:31;;;;;;;4.97;3.60;;;;;;;9.68;68.09;98664.11;1723650;83;22074;-70
2022/01/05 07:39:57;;;;;;;6.22;4.28;;;;;;;9.70;67.93;98661.91;1746622;82;20948;-70
2022/01/05 07:42:24;;;;;;;6.65;4.37;;;;;;;9.69;67.92;98640.90;1723611;83;21106;-72
2022/01/05 07:44:53;;;;;;;7.00;3.80;;;;;;;9.69;67.91;98634.23;1723432;82;21539;-70
2022/01/05 07:47:19;;;;;;;5.85;3.87;;;;;;;9.69;67.99;98648.34;1786656;79;21004;-70
2022/01/05 07:49:46;;;;;;;6.92;4.08;;;;;;;9.72;68.00;98639.76;1785966;79;21983;-71
2022/01/05 07:52:13;;;;;;;6.37;4.35;;;;;;;9.75;68.14;98658.38;1786333;79;21280;-71
2022/01/05 07:54:41;;;;;;;6.10;4.20;;;;;;;9.79;68.09;98653.47;1786551;79;21012;-71
2022/01/05 07:57:07;;;;;;;6.22;4.40;;;;;;;9.83;68.11;98663.00;1786806;79;21008;-71
2022/01/05 07:59:35;;;;;;;7.17;4.33;;;;;;;9.88;68.09;98662.91;1785518;79;21012;-72
2022/01/05 08:02:02;;;;;;;8.80;4.47;;;;;;;9.92;68.10;98673.21;1746171;81;21070;-71
2022/01/05 08:04:31;;;;;;;5.85;4.03;;;;;;;9.93;68.08;98668.12;1746453;80;21000;-71
2022/01/05 08:06:57;;;;;;;7.25;4.30;;;;;;;9.97;68.12;98677.13;1723391;82;21533;-72
2022/01/05 08:09:25;;;;;;;6.47;4.30;;;;;;;9.98;68.10;98685.36;1786143;79;21471;-71
2022/01/05 08:11:51;;;;;;;5.35;4.03;;;;;;;10.03;68.15;98685.78;1786343;79;21593;-71
2022/01/05 08:14:18;;;;;;;7.58;4.58;;;;;;;10.10;68.10;98700.84;1786434;80;21864;-71
2022/01/05 08:16:45;;;;;;;6.67;4.33;;;;;;;10.16;68.08;98703.65;1744948;82;20972;-72
2022/01/05 08:19:11;;;;;;;6.10;4.60;;;;;;;10.22;67.99;98717.67;1745052;82;21043;-72
2022/01/05 08:21:39;;;;;;;6.90;4.40;;;;;;;10.26;67.90;98713.34;1745734;82;20996;-71
2022/01/05 08:24:06;;;;;;;6.25;4.58;;;;;;;10.33;67.87;98708.38;1723923;82;21510;-72
2022/01/05 08:26:36;;;;;;;7.25;5.12;;;;;;;10.41;67.84;98709.57;1723077;81;21103;-72
2022/01/05 08:29:05;;;;;;;7.35;4.72;;;;;;;10.49;67.68;98724.86;1746790;81;20972;-71
2022/01/05 08:31:31;;;;;;;6.70;4.53;;;;;;;10.56;67.50;98715.88;1723113;81;21102;-72
2022/01/05 08:33:59;;;;;;;9.40;4.47;;;;;;;10.65;67.36;98725.31;1722777;81;21011;-71
2022/01/05 08:36:26;;;;;;;5.25;3.92;;;;;;;10.75;67.28;98725.86;1746454;80;21665;-72
2022/01/05 08:38:52;;;;;;;6.75;4.47;;;;;;;10.88;67.06;98725.56;1723615;81;21066;-73
2022/01/05 08:41:19;;;;;;;6.97;4.40;;;;;;;10.94;66.58;98719.56;1745943;82;20949;-71
2022/01/05 08:43:46;;;;;;;6.47;4.80;;;;;;;11.02;66.26;98720.16;1723715;82;21446;-70
2022/01/05 08:46:12;;;;;;;6.17;4.47;;;;;;;11.08;66.08;98714.14;1723618;81;21219;-72
2022/01/05 08:48:41;;;;;;;8.13;4.47;;;;;;;11.14;65.83;98714.27;1745965;81;22204;-72
2022/01/05 08:51:08;;;;;;;6.53;4.80;;;;;;;11.19;65.62;98714.16;1723554;82;39176;-73
2022/01/05 08:53:34;;;;;;;6.20;4.43;;;;;;;11.23;65.54;98709.22;1722787;82;21208;-72
2022/01/05 08:56:01;;;;;;;6.97;4.63;;;;;;;11.31;65.47;98709.56;1723154;82;21080;-72
2022/01/05 08:58:28;;;;;;;5.90;4.20;;;;;;;11.36;65.38;98700.88;1746741;82;21189;-72
2022/01/05 09:00:55;;;;;;;5.90;4.50;;;;;;;11.46;65.32;98701.94;1723454;81;21808;-70
2022/01/05 09:03:22;;;;;;;6.13;4.47;;;;;;;11.51;65.05;98703.68;1786177;79;21223;-72
2022/01/05 09:05:50;;;;;;;7.40;4.73;;;;;;;11.57;64.91;98697.66;1786344;79;21589;-71
2022/01/05 09:08:17;;;;;;;6.07;4.40;;;;;;;11.63;64.60;98695.88;1786241;79;21132;-71
2022/01/05 09:10:44;;;;;;;7.10;4.83;;;;;;;11.73;64.36;98696.14;1786578;79;21150;-72
2022/01/05 09:13:12;;;;;;;7.93;4.50;;;;;;;11.82;64.19;98690.28;1786552;79;21358;-71
2022/01/05 09:15:40;;;;;;;6.43;4.53;;;;;;;11.92;63.94;98703.95;1786750;79;21263;-72
2022/01/05 09:18:07;;;;;;;8.03;4.83;;;;;;;12.02;63.78;98700.20;1785388;79;21275;-71
2022/01/05 09:20:34;;;;;;;6.93;4.70;;;;;;;12.06;63.30;98703.27;1745943;81;21346;-75
2022/01/05 09:23:02;;;;;;;7.03;4.60;;;;;;;12.05;63.15;98708.94;1723479;82;21172;-72
2022/01/05 09:25:29;;;;;;;5.53;4.40;;;;;;;12.06;62.98;98701.14;1723527;81;21031;-72
2022/01/05 09:27:56;;;;;;;6.37;4.57;;;;;;;12.01;62.99;98701.27;1786543;79;21252;-72
2022/01/05 09:30:27;;;;;;;7.93;4.90;;;;;;;11.96;63.00;98696.88;1786498;79;21310;-72
2022/01/05 09:32:54;;;;;;;;;;;;;;;11.92;62.68;98689.23;1788004;79;21237;-72
2022/01/05 09:35:23;;;;;;;5.13;4.07;;;;;;;11.89;62.65;98710.70;1786650;79;20211;-72
2022/01/05 09:38:35;;;;;;;7.67;4.80;;;;;;;11.94;62.86;98707.89;1785523;79;21087;-72
2022/01/05 09:43:08;;;;;;;6.27;4.40;;;;;;;11.93;62.11;98700.95;1785448;79;21247;-73
2022/01/05 09:45:38;;;;;;;5.57;4.43;;;;;;;11.93;61.64;98706.30;1786495;78;21283;-73
2022/01/05 09:48:37;;;;;;;6.50;4.40;;;;;;;11.95;61.51;98709.46;1786473;79;21361;-71
2022/01/05 09:51:09;;;;;;;6.23;4.80;;;;;;;11.93;61.54;98720.23;1786258;79;21164;-70
2022/01/05 09:53:40;;;;;;;6.27;4.27;;;;;;;11.94;61.55;98735.17;1786377;79;21225;-71
2022/01/05 09:56:07;;;;;;;6.63;4.33;;;;;;;11.91;61.64;98735.27;1746875;81;21924;-71
2022/01/05 09:58:36;;;;;;;5.90;4.23;;;;;;;11.92;61.56;98734.72;1746807;82;21215;-72
2022/01/05 10:01:05;;;;;;;6.00;4.80;;;;;;;11.87;61.56;98737.52;1747005;82;21450;-71
2022/01/05 10:03:32;;;;;;;8.13;4.73;;;;;;;11.86;61.70;98739.96;1746632;82;21222;-71
2022/01/05 10:06:00;;;;;;;7.60;5.67;;;;;;;11.83;61.82;98748.02;1746809;82;21361;-73
2022/01/05 10:08:31;;;;;;;5.77;4.20;;;;;;;11.77;61.88;98747.91;1746651;82;20991;-71
2022/01/05 10:10:58;;;;;;;6.50;4.57;;;;;;;11.73;61.91;98752.31;1746607;82;21239;-72
2022/01/05 10:13:25;;;;;;;7.30;4.93;;;;;;;11.76;61.94;98757.05;1732968;82;21275;-71
2022/01/05 10:15:52;;;;;;;6.97;4.97;;;;;;;11.78;62.01;98764.22;1702272;84;21570;-71
2022/01/05 10:18:22;;;;;;;7.00;5.23;;;;;;;11.79;61.88;98765.00;1672168;84;21958;-71
2022/01/05 10:21:01;;;;;;;5.90;4.37;;;;;;;11.77;61.95;98778.67;1702317;84;21243;-71
2022/01/05 10:23:45;;;;;;;8.63;5.77;;;;;;;11.73;61.95;98785.73;1718444;83;21285;-71
2022/01/05 10:26:33;;;;;;;6.73;5.07;;;;;;;11.74;62.02;98781.96;1746296;81;21280;-71
2022/01/05 10:29:06;;;;;;;7.67;5.37;;;;;;;11.74;61.95;98789.43;1723623;81;21185;-71
2022/01/05 10:31:38;;;;;;;6.03;4.62;;;;;;;11.71;61.73;98783.39;1723870;82;21344;-72
2022/01/05 10:34:25;;;;;;;6.40;4.33;;;;;;;11.69;61.35;98795.48;1786302;79;21011;-71
2022/01/05 10:37:06;;;;;;;6.97;4.80;;;;;;;11.64;61.22;98787.58;1778470;79;21232;-72
2022/01/05 10:39:39;;;;;;;6.27;4.80;;;;;;;11.59;61.28;98776.47;1730245;82;21239;-73
2022/01/05 10:42:10;;;;;;;7.73;4.70;;;;;;;11.56;61.39;98774.41;1725577;82;21418;-72
2022/01/05 10:44:38;;;;;;;5.95;4.50;;;;;;;11.52;61.48;98772.12;1723359;82;21285;-71
2022/01/05 10:47:06;;;;;;;7.17;5.00;;;;;;;11.50;61.67;98780.98;1723780;82;21042;-73
2022/01/05 10:49:39;;;;;;;5.90;4.80;;;;;;;11.47;61.83;98782.37;1746706;81;21394;-72
2022/01/05 10:52:20;;;;;;;7.73;5.07;;;;;;;11.48;61.90;98780.48;1723664;82;21264;-73
2022/01/05 10:54:48;;;;;;;6.35;4.80;;;;;;;11.50;61.93;98778.31;1745285;82;21175;-71
2022/01/05 10:57:15;;;;;;;7.30;5.50;;;;;;;11.49;61.92;98776.19;1746736;82;21356;-72
2022/01/05 10:59:47;;;;;;;7.63;4.40;;;;;;;11.47;61.93;98767.67;1727408;82;21384;-72
2022/01/05 11:02:32;;;;;;;7.77;4.93;;;;;;;11.46;61.98;98772.78;1701916;83;21365;-71
2022/01/05 11:05:10;;;;;;;7.07;5.40;;;;;;;11.43;62.03;98773.39;1701928;84;21351;-72
2022/01/05 11:07:39;;;;;;;7.67;5.37;;;;;;;11.41;62.10;98769.44;1701809;84;21236;-71
2022/01/05 11:10:11;;;;;;;7.97;5.70;;;;;;;11.40;62.19;98770.00;1728594;81;21301;-72
2022/01/05 11:12:48;;;;;;;6.42;4.80;;;;;;;11.37;62.22;98786.64;1746729;82;21094;-71
2022/01/05 11:15:21;;;;;;;7.03;4.97;;;;;;;11.36;62.23;98779.73;1722887;82;21542;-71
2022/01/05 11:18:08;;;;;;;7.37;4.80;;;;;;;11.34;62.06;98789.14;1723616;81;21235;-71
2022/01/05 11:20:42;;;;;;;6.47;4.90;;;;;;;11.36;62.12;98791.75;1785954;79;21241;-71
2022/01/05 11:23:10;;;;;;;6.83;5.13;;;;;;;11.36;62.01;98792.30;1786493;79;21348;-71
2022/01/05 11:25:37;;;;;;;6.53;4.90;;;;;;;11.33;61.82;98780.88;1745709;81;21404;-71
2022/01/05 11:28:05;;;;;;;6.93;4.73;;;;;;;11.30;61.52;98791.63;1746736;82;21318;-71
2022/01/05 11:30:32;;;;;;;6.57;4.60;;;;;;;11.30;61.33;98792.19;1746066;82;21765;-71
2022/01/05 11:32:59;;;;;;;6.40;4.80;;;;;;;11.30;61.13;98795.64;1746649;82;21237;-72
2022/01/05 11:35:27;;;;;;;5.73;4.43;;;;;;;11.32;61.00;98804.68;1746561;82;21224;-72
2022/01/05 11:37:53;;;;;;;6.97;4.63;;;;;;;11.33;60.74;98811.63;1746436;82;21234;-71
2022/01/05 11:40:21;;;;;;;6.00;4.30;;;;;;;11.33;60.29;98807.06;1723308;81;21163;-72
2022/01/05 11:42:50;;;;;;;6.07;4.50;;;;;;;11.36;60.16;98807.80;1733482;79;21118;-71
2022/01/05 11:45:33;;;;;;;7.33;5.20;;;;;;;11.34;59.98;98812.64;1746280;82;21412;-72
2022/01/05 11:48:28;;;;;;;7.90;4.63;;;;;;;11.31;59.91;98809.79;1723426;81;22056;-72